createdAt,value
2017-09-17T00:00:43.322Z,101292.69
2017-09-17T00:03:09.950Z,101291.81
2017-09-17T00:05:36.870Z,101280.93
2017-09-17T00:08:03.845Z,101287.44
2017-09-17T00:10:30.479Z,101286.16
2017-09-17T00:12:57.397Z,101283.97
2017-09-17T00:15:24.274Z,101281.80
2017-09-17T00:17:50.908Z,101278.30
2017-09-17T00:20:17.550Z,101279.19
2017-09-17T00:22:44.707Z,101281.80
2017-09-17T00:25:12.099Z,101281.34
2017-09-17T00:27:38.742Z,101280.49
2017-09-17T00:30:05.845Z,101284.02
2017-09-17T00:32:32.465Z,101278.77
2017-09-17T00:34:59.086Z,101278.33
2017-09-17T00:37:26.075Z,101279.20
2017-09-17T00:39:53.996Z,101274.39
2017-09-17T00:42:20.639Z,101276.58
2017-09-17T00:44:47.617Z,101274.85
2017-09-17T00:47:14.254Z,101276.14
2017-09-17T00:49:40.886Z,101272.66
2017-09-17T00:52:07.597Z,101278.34
2017-09-17T00:54:34.241Z,101276.61
2017-09-17T00:57:00.857Z,101277.47
2017-09-17T00:59:27.965Z,101285.34
2017-09-17T01:01:54.603Z,101287.95
2017-09-17T01:04:21.979Z,101285.36
2017-09-17T01:06:49.723Z,101272.69
2017-09-17T01:09:16.382Z,101277.06
2017-09-17T01:11:43.742Z,101273.13
2017-09-17T01:14:11.202Z,101269.65
2017-09-17T01:16:38.174Z,101272.71
2017-09-17T01:19:05.253Z,101274.45
2017-09-17T01:21:31.878Z,101278.39
2017-09-17T01:23:58.518Z,101279.70
2017-09-17T01:26:25.576Z,101280.16
2017-09-17T01:28:52.201Z,101281.48
2017-09-17T01:31:18.836Z,101286.72
2017-09-17T01:33:45.475Z,101286.72
2017-09-17T01:36:12.546Z,101280.59
2017-09-17T01:38:39.230Z,101281.47
2017-09-17T01:41:05.866Z,101280.16
2017-09-17T01:43:32.739Z,101281.50
2017-09-17T01:45:59.375Z,101277.13
2017-09-17T01:48:26.306Z,101279.30
2017-09-17T01:50:53.250Z,101281.95
2017-09-17T01:53:20.398Z,101275.39
2017-09-17T01:55:47.345Z,101276.24
2017-09-17T01:58:13.953Z,101276.73
2017-09-17T02:00:41.882Z,101272.78
2017-09-17T02:03:08.498Z,101267.52
2017-09-17T02:05:35.434Z,101264.03
2017-09-17T02:08:02.125Z,101267.52
2017-09-17T02:10:29.476Z,101274.55
2017-09-17T02:12:56.126Z,101274.95
2017-09-17T02:15:23.485Z,101272.36
2017-09-17T02:17:51.490Z,101276.73
2017-09-17T02:20:18.108Z,101271.92
2017-09-17T02:22:44.738Z,101265.36
2017-09-17T02:25:12.356Z,101271.92
2017-09-17T02:27:38.968Z,101268.88
2017-09-17T02:30:05.602Z,101268.45
2017-09-17T02:32:32.586Z,101261.47
2017-09-17T02:34:59.196Z,101266.28
2017-09-17T02:37:26.127Z,101271.52
2017-09-17T02:39:53.118Z,101275.02
2017-09-17T02:42:19.779Z,101271.53
2017-09-17T02:44:47.435Z,101271.96
2017-09-17T02:47:14.818Z,101261.06
2017-09-17T02:49:41.444Z,101268.92
2017-09-17T02:52:08.446Z,101272.00
2017-09-17T02:54:35.053Z,101271.10
2017-09-17T02:57:01.681Z,101266.77
2017-09-17T02:59:28.664Z,101269.39
2017-09-17T03:01:55.678Z,101265.88
2017-09-17T03:04:22.289Z,101260.64
2017-09-17T03:06:50.117Z,101252.38
2017-09-17T03:09:16.729Z,101263.27
2017-09-17T03:11:43.361Z,101263.70
2017-09-17T03:14:10.346Z,101268.08
2017-09-17T03:16:36.983Z,101264.60
2017-09-17T03:19:03.652Z,101261.98
2017-09-17T03:21:31.477Z,101265.47
2017-09-17T03:23:58.082Z,101261.12
2017-09-17T03:26:31.989Z,101260.22
2017-09-17T03:28:58.602Z,101261.55
2017-09-17T03:31:25.240Z,101266.36
2017-09-17T03:33:52.272Z,101264.20
2017-09-17T03:36:20.248Z,101257.19
2017-09-17T03:38:47.594Z,101263.30
2017-09-17T03:41:15.443Z,101264.61
2017-09-17T03:43:42.347Z,101267.69
2017-09-17T03:46:08.953Z,101270.31
2017-09-17T03:48:36.782Z,101270.31
2017-09-17T03:51:03.393Z,101272.55
2017-09-17T03:53:30.330Z,101271.63
2017-09-17T03:55:57.513Z,101270.33
2017-09-17T03:58:24.290Z,101272.08
2017-09-17T04:00:51.649Z,101272.52
2017-09-17T04:03:19.065Z,101273.41
2017-09-17T04:05:45.688Z,101275.58
2017-09-17T04:08:12.758Z,101274.70
2017-09-17T04:10:39.381Z,101276.89
2017-09-17T04:13:06.310Z,101284.75
2017-09-17T04:15:33.288Z,101290.02
2017-09-17T04:17:59.914Z,101290.89
2017-09-17T04:20:26.828Z,101290.48
2017-09-17T04:22:54.183Z,101281.30
2017-09-17T04:25:20.799Z,101282.17
2017-09-17T04:27:47.418Z,101289.17
2017-09-17T04:30:15.054Z,101290.04
2017-09-17T04:32:42.778Z,101295.31
2017-09-17T04:35:09.437Z,101291.81
2017-09-17T04:37:36.354Z,101303.61
2017-09-17T04:40:02.977Z,101300.55
2017-09-17T04:42:29.942Z,101303.61
2017-09-17T04:44:57.099Z,101309.72
2017-09-17T04:47:23.707Z,101308.87
2017-09-17T04:49:50.345Z,101312.37
2017-09-17T04:52:18.028Z,101309.33
2017-09-17T04:54:45.124Z,101313.25
2017-09-17T04:57:11.736Z,101311.50
2017-09-17T04:59:38.657Z,101307.58
2017-09-17T05:02:05.588Z,101305.84
2017-09-17T05:04:32.551Z,101310.66
2017-09-17T05:06:59.157Z,101315.47
2017-09-17T05:09:27.157Z,101313.28
2017-09-17T05:11:53.765Z,101316.77
2017-09-17T05:14:21.460Z,101312.41
2017-09-17T05:16:48.109Z,101325.92
2017-09-17T05:19:15.006Z,101315.48
2017-09-17T05:21:42.389Z,101319.42
2017-09-17T05:24:09.287Z,101323.78
2017-09-17T05:26:35.923Z,101322.48
2017-09-17T05:29:02.823Z,101323.36
2017-09-17T05:31:29.483Z,101327.72
2017-09-17T05:33:56.159Z,101326.88
2017-09-17T05:36:23.903Z,101336.04
2017-09-17T05:38:50.526Z,101336.47
2017-09-17T05:41:17.441Z,101336.48
2017-09-17T05:43:44.798Z,101334.28
2017-09-17T05:46:11.424Z,101335.63
2017-09-17T05:48:38.049Z,101338.66
2017-09-17T05:51:05.265Z,101333.46
2017-09-17T05:53:31.891Z,101330.40
2017-09-17T05:55:59.143Z,101333.88
2017-09-17T05:58:26.090Z,101337.38
2017-09-17T06:00:52.729Z,101335.17
2017-09-17T06:03:19.970Z,101339.98
2017-09-17T06:05:47.133Z,101339.98
2017-09-17T06:08:13.753Z,101340.86
2017-09-17T06:10:40.679Z,101346.13
2017-09-17T06:13:07.805Z,101356.15
2017-09-17T06:15:34.422Z,101353.99
2017-09-17T06:18:01.026Z,101354.44
2017-09-17T06:20:28.087Z,101357.05
2017-09-17T06:22:54.934Z,101360.55
2017-09-17T06:25:21.558Z,101352.67
2017-09-17T06:27:48.609Z,101361.44
2017-09-17T06:30:15.238Z,101359.69
2017-09-17T06:32:41.872Z,101367.99
2017-09-17T06:35:09.306Z,101366.23
2017-09-17T06:37:36.257Z,101365.36
2017-09-17T06:40:02.881Z,101367.99
2017-09-17T06:42:29.853Z,101365.36
2017-09-17T06:44:56.512Z,101371.48
2017-09-17T06:47:23.568Z,101362.33
2017-09-17T06:49:50.199Z,101368.42
2017-09-17T06:52:16.832Z,101371.07
2017-09-17T06:54:43.883Z,101369.32
2017-09-17T06:57:10.505Z,101372.37
2017-09-17T06:59:37.162Z,101373.69
2017-09-17T07:02:04.201Z,101371.94
2017-09-17T07:04:30.823Z,101377.61
2017-09-17T07:06:57.854Z,101378.50
2017-09-17T07:09:25.308Z,101384.63
2017-09-17T07:11:51.939Z,101386.80
2017-09-17T07:14:18.573Z,101385.02
2017-09-17T07:16:45.543Z,101381.53
2017-09-17T07:19:12.155Z,101384.12
2017-09-17T07:21:38.765Z,101381.96
2017-09-17T07:24:06.880Z,101386.77
2017-09-17T07:26:33.519Z,101388.09
2017-09-17T07:29:00.129Z,101387.20
2017-09-17T07:31:27.230Z,101390.27
2017-09-17T07:33:53.837Z,101390.67
2017-09-17T07:36:20.781Z,101387.53
2017-09-17T07:38:47.735Z,101393.52
2017-09-17T07:41:14.356Z,101393.80
2017-09-17T07:43:40.967Z,101388.98
2017-09-17T07:46:08.802Z,101394.95
2017-09-17T07:48:36.128Z,101401.83
2017-09-17T07:51:02.734Z,101400.34
2017-09-17T07:53:30.009Z,101392.55
2017-09-17T07:55:56.646Z,101393.08
2017-09-17T07:58:23.254Z,101404.78
2017-09-17T08:00:50.985Z,101405.55
2017-09-17T08:03:17.893Z,101401.55
2017-09-17T08:05:44.510Z,101398.02
2017-09-17T08:08:11.717Z,101401.99
2017-09-17T08:10:38.340Z,101402.91
2017-09-17T08:13:05.261Z,101394.93
2017-09-17T08:15:32.253Z,101398.33
2017-09-17T08:17:58.887Z,101394.91
2017-09-17T08:20:25.691Z,101395.80
2017-09-17T08:22:52.401Z,101394.08
2017-09-17T08:25:19.767Z,101390.53
2017-09-17T08:27:46.874Z,101381.31
2017-09-17T08:30:13.775Z,101384.33
2017-09-17T08:32:40.434Z,101385.22
2017-09-17T08:35:07.394Z,101382.08
2017-09-17T08:37:34.047Z,101379.72
2017-09-17T08:40:01.415Z,101382.19
2017-09-17T08:42:29.235Z,101372.81
2017-09-17T08:44:55.841Z,101380.11
2017-09-17T08:47:22.453Z,101377.77
2017-09-17T08:49:50.254Z,101379.45
2017-09-17T08:52:16.855Z,101383.05
2017-09-17T08:54:44.225Z,101371.40
2017-09-17T08:57:11.226Z,101374.95
2017-09-17T08:59:37.854Z,101378.57
2017-09-17T09:02:04.879Z,101373.25
2017-09-17T09:04:31.953Z,101375.41
2017-09-17T09:06:58.570Z,101375.48
2017-09-17T09:09:25.220Z,101376.33
2017-09-17T09:11:52.294Z,101377.27
2017-09-17T09:14:19.655Z,101369.77
2017-09-17T09:16:46.282Z,101368.44
2017-09-17T09:19:13.333Z,101373.13
2017-09-17T09:21:40.002Z,101374.00
2017-09-17T09:24:06.975Z,101371.25
2017-09-17T09:26:34.057Z,101373.70
2017-09-17T09:29:00.698Z,101373.17
2017-09-17T09:31:28.065Z,101371.31
2017-09-17T09:33:55.202Z,101371.23
2017-09-17T09:36:21.843Z,101377.76
2017-09-17T09:38:48.458Z,101373.27
2017-09-17T09:41:15.427Z,101374.12
2017-09-17T09:43:42.331Z,101371.45
2017-09-17T09:46:08.946Z,101374.92
2017-09-17T09:48:36.154Z,101381.11
2017-09-17T09:51:03.063Z,101378.55
2017-09-17T09:53:29.689Z,101378.04
2017-09-17T09:55:56.790Z,101377.92
2017-09-17T09:58:23.435Z,101383.68
2017-09-17T10:00:51.556Z,101379.36
2017-09-17T10:03:18.640Z,101376.39
2017-09-17T10:05:45.266Z,101378.64
2017-09-17T10:08:12.186Z,101376.03
2017-09-17T10:10:39.477Z,101373.92
2017-09-17T10:13:06.099Z,101375.66
2017-09-17T10:15:32.729Z,101372.66
2017-09-17T10:17:59.965Z,101369.59
2017-09-17T10:20:26.594Z,101373.53
2017-09-17T10:22:53.227Z,101374.84
2017-09-17T10:25:20.339Z,101377.53
2017-09-17T10:27:47.847Z,101374.46
2017-09-17T10:30:14.794Z,101373.61
2017-09-17T10:32:41.669Z,101378.45
2017-09-17T10:35:08.362Z,101376.26
2017-09-17T10:37:35.042Z,101371.91
2017-09-17T10:40:02.007Z,101373.22
2017-09-17T10:42:28.665Z,101374.09
2017-09-17T10:44:56.035Z,101375.41
2017-09-17T10:47:23.044Z,101369.31
2017-09-17T10:49:49.941Z,101374.97
2017-09-17T10:52:16.553Z,101373.25
2017-09-17T10:54:44.383Z,101371.94
2017-09-17T10:57:11.014Z,101367.11
2017-09-17T10:59:37.824Z,101365.80
2017-09-17T11:02:05.382Z,101358.82
2017-09-17T11:04:32.225Z,101362.73
2017-09-17T11:06:59.685Z,101358.80
2017-09-17T11:09:26.286Z,101361.42
2017-09-17T11:11:53.786Z,101362.80
2017-09-17T11:14:21.029Z,101361.48
2017-09-17T11:16:47.619Z,101360.16
2017-09-17T11:19:15.618Z,101358.41
2017-09-17T11:21:42.725Z,101357.09
2017-09-17T11:24:09.631Z,101357.14
2017-09-17T11:26:36.246Z,101354.52
2017-09-17T11:29:02.897Z,101360.19
2017-09-17T11:31:29.898Z,101360.21
2017-09-17T11:33:57.259Z,101354.95
2017-09-17T11:36:24.610Z,101356.27
2017-09-17T11:38:51.746Z,101350.61
2017-09-17T11:41:18.390Z,101349.27
2017-09-17T11:43:45.005Z,101356.70
2017-09-17T11:46:12.073Z,101344.45
2017-09-17T11:48:38.693Z,101346.23
2017-09-17T11:51:05.615Z,101346.22
2017-09-17T11:53:32.876Z,101341.03
2017-09-17T11:55:59.507Z,101334.02
2017-09-17T11:58:26.136Z,101335.33
2017-09-17T12:00:53.132Z,101331.83
2017-09-17T12:03:20.488Z,101334.45
2017-09-17T12:05:47.093Z,101331.42
2017-09-17T12:08:14.273Z,101334.97
2017-09-17T12:10:40.941Z,101331.06
2017-09-17T12:13:08.315Z,101324.92
2017-09-17T12:15:35.406Z,101327.58
2017-09-17T12:18:02.416Z,101322.80
2017-09-17T12:20:29.058Z,101323.66
2017-09-17T12:22:56.146Z,101325.44
2017-09-17T12:25:22.782Z,101316.28
2017-09-17T12:27:49.410Z,101319.31
2017-09-17T12:30:16.665Z,101323.66
2017-09-17T12:32:43.278Z,101317.98
2017-09-17T12:35:10.313Z,101318.39
2017-09-17T12:37:37.406Z,101315.76
2017-09-17T12:40:04.022Z,101305.72
2017-09-17T12:42:30.642Z,101308.79
2017-09-17T12:44:57.616Z,101309.22
2017-09-17T12:47:24.507Z,101304.84
2017-09-17T12:49:51.187Z,101303.07
2017-09-17T12:52:18.258Z,101302.63
2017-09-17T12:54:44.875Z,101302.22
2017-09-17T12:57:11.520Z,101308.31
2017-09-17T12:59:38.845Z,101300.03
2017-09-17T13:02:05.788Z,101296.97
2017-09-17T13:04:32.402Z,101303.09
2017-09-17T13:07:00.021Z,101300.00
2017-09-17T13:09:26.902Z,101301.29
2017-09-17T13:11:54.272Z,101297.80
2017-09-17T13:14:21.374Z,101294.73
2017-09-17T13:16:48.000Z,101295.14
2017-09-17T13:19:14.631Z,101288.57
2017-09-17T13:21:41.692Z,101298.20
2017-09-17T13:24:08.358Z,101292.48
2017-09-17T13:26:35.715Z,101292.05
2017-09-17T13:29:03.410Z,101288.55
2017-09-17T13:31:30.070Z,101284.17
2017-09-17T13:33:57.025Z,101287.20
2017-09-17T13:36:23.630Z,101272.92
2017-09-17T13:38:50.249Z,101282.39
2017-09-17T13:41:17.770Z,101276.26
2017-09-17T13:43:44.431Z,101280.17
2017-09-17T13:46:11.825Z,101278.89
2017-09-17T13:48:38.962Z,101277.58
2017-09-17T13:51:05.633Z,101280.17
2017-09-17T13:53:32.317Z,101281.95
2017-09-17T13:56:00.159Z,101278.02
2017-09-17T13:58:26.816Z,101272.76
2017-09-17T14:00:55.129Z,101278.86
2017-09-17T14:03:22.906Z,101269.23
2017-09-17T14:08:54.362Z,101264.88
2017-09-17T14:11:21.027Z,101267.94
2017-09-17T14:13:47.928Z,101263.13
2017-09-17T14:16:15.382Z,101272.34
2017-09-17T14:18:42.794Z,101271.03
2017-09-17T14:21:10.219Z,101260.50
2017-09-17T14:23:36.889Z,101266.19
2017-09-17T14:26:03.513Z,101260.09
2017-09-17T14:28:30.846Z,101260.97
2017-09-17T14:30:57.607Z,101261.81
2017-09-17T14:33:25.219Z,101259.19
2017-09-17T14:35:53.049Z,101250.90
2017-09-17T14:38:19.959Z,101250.00
2017-09-17T14:40:46.581Z,101251.31
2017-09-17T14:43:13.584Z,101246.93
2017-09-17T14:45:40.207Z,101250.44
2017-09-17T14:48:07.117Z,101251.78
2017-09-17T14:50:34.113Z,101255.25
2017-09-17T14:53:01.487Z,101253.94
2017-09-17T14:55:28.842Z,101253.53
2017-09-17T14:57:56.690Z,101259.66
2017-09-17T15:00:23.327Z,101281.08
2017-09-17T15:02:50.244Z,101266.66
2017-09-17T15:05:17.316Z,101267.53
2017-09-17T15:07:43.931Z,101271.03
2017-09-17T15:10:10.538Z,101262.72
2017-09-17T15:12:37.178Z,101257.03
2017-09-17T15:15:04.479Z,101257.47
2017-09-17T15:17:31.087Z,101262.72
2017-09-17T15:19:57.685Z,101262.28
2017-09-17T15:22:25.986Z,101263.59
2017-09-17T15:24:52.615Z,101264.50
2017-09-17T15:27:19.489Z,101262.74
2017-09-17T15:29:46.927Z,101263.65
2017-09-17T15:32:13.590Z,101262.34
2017-09-17T15:34:40.225Z,101262.36
2017-09-17T15:37:07.078Z,101261.92
2017-09-17T15:39:33.684Z,101267.61
2017-09-17T15:42:00.309Z,101265.89
2017-09-17T15:44:27.387Z,101261.07
2017-09-17T15:46:53.982Z,101263.70
2017-09-17T15:49:20.586Z,101263.29
2017-09-17T15:51:47.621Z,101266.80
2017-09-17T15:54:14.266Z,101268.56
2017-09-17T15:56:41.171Z,101268.98
2017-09-17T15:59:07.822Z,101265.48
2017-09-17T16:01:34.446Z,101270.73
2017-09-17T16:04:01.540Z,101282.11
2017-09-17T16:06:28.170Z,101281.23
2017-09-17T16:08:54.811Z,101281.23
2017-09-17T16:11:21.468Z,101280.83
2017-09-17T16:13:48.862Z,101283.01
2017-09-17T16:16:16.056Z,101287.41
2017-09-17T16:18:42.714Z,101303.61
2017-09-17T16:21:10.143Z,101302.73
2017-09-17T16:23:37.562Z,101200.20
2017-09-17T16:26:04.175Z,101305.36
2017-09-17T16:28:31.527Z,101302.76
2017-09-17T16:31:00.232Z,101299.70
2017-09-17T16:33:26.965Z,101297.53
2017-09-17T16:35:53.615Z,101302.78
2017-09-17T16:38:20.612Z,101300.63
2017-09-17T16:40:48.774Z,101301.94
2017-09-17T16:43:15.418Z,101301.50
2017-09-17T16:45:42.566Z,101308.94
2017-09-17T16:48:09.470Z,101305.90
2017-09-17T16:50:36.092Z,101304.15
2017-09-17T16:53:03.193Z,101312.03
2017-09-17T16:55:29.813Z,101317.25
2017-09-17T16:57:56.431Z,101318.15
2017-09-17T17:00:30.499Z,101319.49
2017-09-17T17:02:58.650Z,101323.02
2017-09-17T17:05:25.298Z,101326.48
2017-09-17T17:07:52.054Z,101322.98
2017-09-17T17:10:19.741Z,101324.33
2017-09-17T17:12:46.413Z,101326.92
2017-09-17T17:15:13.099Z,101330.02
2017-09-17T17:17:41.105Z,101324.77
2017-09-17T17:20:07.770Z,101331.33
2017-09-17T17:22:34.394Z,101334.86
2017-09-17T17:25:01.467Z,101332.64
2017-09-17T17:27:28.097Z,101330.02
2017-09-17T17:29:54.726Z,101335.32
2017-09-17T17:32:21.770Z,101330.07
2017-09-17T17:34:48.404Z,101336.16
2017-09-17T17:37:15.018Z,101342.75
2017-09-17T17:39:42.110Z,101347.16
2017-09-17T17:42:08.734Z,101355.94
2017-09-17T17:44:35.406Z,101358.12
2017-09-17T17:47:03.418Z,101370.38
2017-09-17T17:49:30.034Z,101366.88
2017-09-17T17:51:56.897Z,101364.25
2017-09-17T17:54:23.882Z,101365.13
2017-09-17T17:56:50.508Z,101365.15
2017-09-17T17:59:17.147Z,101364.29
2017-09-17T18:01:44.102Z,101366.53
2017-09-17T18:04:10.933Z,101369.10
2017-09-17T18:06:37.554Z,101365.63
2017-09-17T18:09:04.783Z,101372.63
2017-09-17T18:11:31.417Z,101371.34
2017-09-17T18:13:58.062Z,101374.41
2017-09-17T18:16:25.426Z,101375.74
2017-09-17T18:18:52.048Z,101380.55
2017-09-17T18:21:18.840Z,101378.39
2017-09-17T18:23:45.998Z,101386.23
2017-09-17T18:26:12.626Z,101385.39
2017-09-17T18:28:39.270Z,101388.45
2017-09-17T18:31:06.312Z,101391.10
2017-09-17T18:33:33.222Z,101390.20
2017-09-17T18:36:00.079Z,101391.98
2017-09-17T18:38:27.522Z,101390.22
2017-09-17T18:40:54.466Z,101390.66
2017-09-17T18:43:21.080Z,101388.52
2017-09-17T18:45:48.185Z,101392.44
2017-09-17T18:48:14.810Z,101387.19
2017-09-17T18:50:47.674Z,101388.49
2017-09-17T18:53:14.324Z,101389.39
2017-09-17T18:55:40.973Z,101388.52
2017-09-17T18:58:08.224Z,101390.30
2017-09-17T19:00:34.859Z,101387.20
2017-09-17T19:03:01.736Z,101387.66
2017-09-17T19:05:28.762Z,101386.81
2017-09-17T19:07:55.386Z,101386.37
2017-09-17T19:10:22.005Z,101378.93
2017-09-17T19:12:49.014Z,101387.26
2017-09-17T19:15:16.422Z,101386.81
2017-09-17T19:17:43.555Z,101384.61
2017-09-17T19:20:10.589Z,101383.30
2017-09-17T19:22:37.634Z,101386.39
2017-09-17T19:25:04.405Z,101381.14
2017-09-17T19:27:31.053Z,101375.45
2017-09-17T19:29:58.321Z,101369.32
2017-09-17T19:32:27.093Z,101373.28
2017-09-17T19:34:53.933Z,101380.28
2017-09-17T19:37:21.702Z,101381.59
2017-09-17T19:39:49.710Z,101374.59
2017-09-17T19:42:16.386Z,101380.75
2017-09-17T19:44:43.326Z,101379.84
2017-09-17T19:47:10.714Z,101375.05
2017-09-17T19:49:37.359Z,101378.58
2017-09-17T19:52:04.105Z,101377.70
2017-09-17T19:54:31.156Z,101383.39
2017-09-17T19:56:57.977Z,101385.58
2017-09-17T19:59:24.608Z,101389.09
2017-09-17T20:01:51.532Z,101387.34
2017-09-17T20:04:18.296Z,101386.47
2017-09-17T20:06:45.221Z,101384.72
2017-09-17T20:09:12.401Z,101385.16
2017-09-17T20:11:39.033Z,101388.69
2017-09-17T20:14:06.053Z,101394.80
2017-09-17T20:16:33.248Z,101397.42
2017-09-17T20:18:59.872Z,101393.95
2017-09-17T20:21:26.637Z,101360.12
2017-09-17T20:23:55.696Z,101389.17
2017-09-17T20:26:22.311Z,101389.17
2017-09-17T20:28:48.948Z,101378.66
2017-09-17T20:31:16.203Z,101383.91
2017-09-17T20:33:42.826Z,101396.60
2017-09-17T20:36:09.443Z,101374.28
2017-09-17T20:38:36.869Z,101385.66
2017-09-17T20:41:04.027Z,101376.50
2017-09-17T20:43:30.931Z,101383.06
2017-09-17T20:45:57.996Z,101379.13
2017-09-17T20:48:25.075Z,101384.37
2017-09-17T20:50:51.693Z,101384.84
2017-09-17T20:53:18.318Z,101369.67
2017-09-17T20:55:45.695Z,101387.92
2017-09-17T20:58:13.313Z,101391.86
2017-09-17T21:00:40.258Z,101382.23
2017-09-17T21:03:07.352Z,101388.34
2017-09-17T21:05:33.978Z,101382.66
2017-09-17T21:08:00.614Z,101386.63
2017-09-17T21:10:27.662Z,101388.38
2017-09-17T21:12:54.302Z,101384.92
2017-09-17T21:15:20.968Z,101390.58
2017-09-17T21:17:48.677Z,101386.65
2017-09-17T21:20:15.304Z,101390.58
2017-09-17T21:22:41.918Z,101387.52
2017-09-17T21:25:09.846Z,101387.55
2017-09-17T21:27:36.449Z,101382.73
2017-09-17T21:30:03.095Z,101379.66
2017-09-17T21:32:30.174Z,101382.29
2017-09-17T21:34:56.799Z,101383.16
2017-09-17T21:37:23.417Z,101388.88
2017-09-17T21:39:50.661Z,101383.63
2017-09-17T21:42:17.282Z,101386.24
2017-09-17T21:44:43.911Z,101377.52
2017-09-17T21:47:11.620Z,101382.77
2017-09-17T21:49:38.238Z,101384.08
2017-09-17T21:52:04.987Z,101382.80
2017-09-17T21:54:32.229Z,101384.11
2017-09-17T21:56:58.987Z,101379.31
2017-09-17T21:59:25.610Z,101383.67
2017-09-17T22:01:52.857Z,101379.76
2017-09-17T22:04:19.475Z,101376.25
2017-09-17T22:06:46.142Z,101376.25
2017-09-17T22:09:12.783Z,101370.59
2017-09-17T22:11:39.410Z,101373.66
2017-09-17T22:14:06.341Z,101373.20
2017-09-17T22:16:32.969Z,101372.80
2017-09-17T22:19:00.316Z,101370.59
2017-09-17T22:21:27.941Z,101373.23
2017-09-17T22:23:54.554Z,101370.17
2017-09-17T22:26:21.210Z,101366.70
2017-09-17T22:28:48.919Z,101365.39
2017-09-17T22:31:15.891Z,101363.63
2017-09-17T22:33:42.514Z,101362.31
2017-09-17T22:36:09.617Z,101357.53
2017-09-17T22:38:36.234Z,101351.85
2017-09-17T22:41:02.858Z,101346.16
2017-09-17T22:43:30.103Z,101349.69
2017-09-17T22:45:56.709Z,101348.34
2017-09-17T22:48:24.074Z,101351.44
2017-09-17T22:50:51.079Z,101350.12
2017-09-17T22:53:17.705Z,101351.45
2017-09-17T22:55:44.325Z,101352.77
2017-09-17T22:58:11.673Z,101348.83
2017-09-17T23:00:38.821Z,101355.85
2017-09-17T23:03:05.434Z,101339.80
2017-09-17T23:05:32.711Z,101351.92
2017-09-17T23:07:59.314Z,101351.92
2017-09-17T23:10:26.694Z,101361.98
2017-09-17T23:12:53.795Z,101365.92
2017-09-17T23:15:20.475Z,101369.43
2017-09-17T23:17:47.097Z,101371.61
2017-09-17T23:20:14.495Z,101368.98
2017-09-17T23:22:41.118Z,101358.23
2017-09-17T23:25:08.184Z,101377.31
2017-09-17T23:27:35.170Z,101373.84
2017-09-17T23:30:03.233Z,101366.84
2017-09-17T23:32:31.570Z,101369.91
2017-09-17T23:34:58.182Z,101364.22
2017-09-17T23:37:24.834Z,101363.80
2017-09-17T23:39:52.089Z,101364.25
2017-09-17T23:42:18.741Z,101368.17
2017-09-17T23:44:45.374Z,101362.95
2017-09-17T23:47:12.518Z,101364.67
2017-09-17T23:49:39.461Z,101362.95
2017-09-17T23:52:06.818Z,101367.31
2017-09-17T23:54:33.904Z,101360.31
2017-09-17T23:57:00.529Z,101362.09
2017-09-17T23:59:27.146Z,101365.56
